Cork, Ireland

10:08 AM GMT on December 03, 2016 (GMT +0000)
Cork | | Change Station

Elev 531 ft 51.85 °N, 8.48 °W | Updated 8 minutes ago

Overcast
Overcast
46 °F
Feels Like 42 °F
N
8
Wind Variable Wind from ESE

Today
High -- | Low -- °F
--% Chance of Precip.
Yesterday
High -- | Low -- °F
Precip. -- in
Pressure 30.15 in
Visibility 6.2 miles
Clouds Few 1500 ft
Overcast 4200 ft
Windchill 42 °F
Dew Point 41 °F
Humidity 81%
Rainfall 0.00 in
Snow Depth Not available.
8:22 AM 4:25 PM
Waxing Crescent, 14% visible
METAR EICK 031000Z 11007KT 9999 FEW015 OVC042 08/05 Q1021 NOSIG
Pressure 30.15 in
Visibility 6.2 miles
Clouds Few 1500 ft
Overcast 4200 ft
Windchill 42 °F
Dew Point 41 °F
Humidity 81%
Rainfall 0.00 in
Snow Depth Not available.
8:22 AM 4:25 PM
Waxing Crescent, 14% visible
METAR EICK 031000Z 11007KT 9999 FEW015 OVC042 08/05 Q1021 NOSIG

10-Day Weather Forecast

×

Almanac

Astronomy

Dec. 03, 2016 Rise Set
Actual Time
Civil Twilight
Nautical Twilight
Astronomical Twilight
Moon
Length of Visible Light
Length of Day
Tomorrow will be .
, % of the Moon is Illuminated

Today's Extremes

Country Highs Country Lows

Community

WunderPhotos

Upload Photos

1,955,434 photos uploaded!

WunderBlog® & News

Nearby

Air Quality

  Air Quality AQ Index Pollutant
Not available.

Snow Depth

Station Depth Elevation

Earthquake Activity

City Distance Mag. Time & Date
Minimum magnitude displayed is 2.5.

Coastal Water Temperatures

Place Temperature

Stations

Nearby Weather Stations

Station Location Temp. Windchill Dew Point Humidity Wind Precip. Elev Updated Type